Time;durP1;ratioP1;P1;durP2;ratioP2;P2;SDS_P1;SDS_P2;PMS_P1;PMS_P2;Temp;Humidity;BMP_temperature;BMP_pressure;BME280_temperature;BME280_humidity;BME280_pressure;Samples;Min_cycle;Max_cycle;Signal;HPM_P1;HPM_P2
2021/09/15 00:00:41;;;;;;;6.87;6.17;;;20.30;72.90;;;;;;5122531;28;20016;-70
2021/09/15 00:03:07;;;;;;;6.43;5.73;;;20.30;72.00;;;;;;5122330;28;20019;-70
2021/09/15 00:05:33;;;;;;;10.30;6.55;;;20.30;72.50;;;;;;5104308;28;20069;-69
2021/09/15 00:07:58;;;;;;;8.23;6.23;;;20.30;72.80;;;;;;5122452;28;20334;-69
2021/09/15 00:10:24;;;;;;;8.43;6.57;;;20.30;72.40;;;;;;5122446;28;20030;-69
2021/09/15 00:12:50;;;;;;;10.73;6.23;;;20.30;72.50;;;;;;5120938;28;20273;-70
2021/09/15 00:15:16;;;;;;;10.70;6.37;;;20.20;72.60;;;;;;5104166;28;20027;-70
2021/09/15 00:17:41;;;;;;;10.17;6.93;;;20.20;72.30;;;;;;5122435;28;20027;-70
2021/09/15 00:20:08;;;;;;;6.80;6.00;;;20.20;72.00;;;;;;5122423;28;20030;-70
2021/09/15 00:22:34;;;;;;;;;;;20.10;72.20;;;;;;5122471;28;20083;-69
2021/09/15 00:25:00;;;;;;;10.10;5.85;;;20.10;72.80;;;;;;5122136;28;19922;-70
2021/09/15 00:27:26;;;;;;;10.17;6.90;;;20.10;72.70;;;;;;5122114;28;20020;-70
2021/09/15 00:29:51;;;;;;;11.33;6.33;;;20.10;72.90;;;;;;5104281;28;20016;-70
2021/09/15 00:32:17;;;;;;;8.87;6.27;;;20.00;72.90;;;;;;5122072;28;20057;-69
2021/09/15 00:34:43;;;;;;;11.93;6.77;;;20.10;73.60;;;;;;5104300;28;20313;-69
2021/09/15 00:37:09;;;;;;;7.03;6.33;;;20.10;73.40;;;;;;5122287;28;20023;-70
2021/09/15 00:39:34;;;;;;;11.30;6.87;;;20.20;73.00;;;;;;5107109;28;20077;-70
2021/09/15 00:42:00;;;;;;;10.50;6.57;;;20.20;73.20;;;;;;5125495;28;20281;-70
2021/09/15 00:44:26;;;;;;;9.20;5.83;;;20.20;73.00;;;;;;5125832;28;20226;-69
2021/09/15 00:46:52;;;;;;;10.03;6.97;;;20.20;73.20;;;;;;5125929;28;20031;-69
2021/09/15 00:49:18;;;;;;;9.23;6.53;;;20.20;73.10;;;;;;5125936;28;20051;-69
2021/09/15 00:51:44;;;;;;;8.27;6.60;;;20.20;73.00;;;;;;5125598;28;20281;-69
2021/09/15 00:54:12;;;;;;;9.88;7.15;;;20.20;72.80;;;;;;5107480;28;20280;-69
2021/09/15 00:56:38;;;;;;;13.07;7.20;;;20.00;73.10;;;;;;5107597;28;20027;-69
2021/09/15 00:59:04;;;;;;;9.40;6.45;;;19.90;73.30;;;;;;5107552;28;20023;-69
2021/09/15 01:01:30;;;;;;;10.05;7.10;;;20.00;73.30;;;;;;5125620;28;20038;-69
2021/09/15 01:03:56;;;;;;;7.13;6.10;;;20.00;73.70;;;;;;5107170;28;20023;-69
2021/09/15 01:06:22;;;;;;;9.55;5.85;;;20.00;73.70;;;;;;5125051;28;20279;-70
2021/09/15 01:08:48;;;;;;;7.60;6.43;;;20.10;73.50;;;;;;5125519;28;20020;-70
2021/09/15 01:11:14;;;;;;;11.00;6.90;;;20.00;73.90;;;;;;5106522;28;20079;-69
2021/09/15 01:13:40;;;;;;;6.93;6.22;;;20.00;74.00;;;;;;5089811;28;20269;-69
2021/09/15 01:16:07;;;;;;;8.63;6.40;;;20.00;74.50;;;;;;5090413;28;20092;-69
2021/09/15 01:18:33;;;;;;;;;;;20.00;73.40;;;;;;5107805;28;20022;-69
2021/09/15 01:20:59;;;;;;;8.65;6.90;;;20.00;73.40;;;;;;5125297;28;19970;-69
2021/09/15 01:23:24;;;;;;;8.83;7.30;;;19.90;73.60;;;;;;5106821;28;20106;-70
2021/09/15 01:25:50;;;;;;;9.67;7.13;;;19.90;74.00;;;;;;5125059;28;20285;-69
2021/09/15 01:28:17;;;;;;;9.20;7.60;;;19.80;74.70;;;;;;5089913;28;20023;-69
2021/09/15 01:30:43;;;;;;;10.60;6.90;;;19.80;74.80;;;;;;5125104;28;20034;-69
2021/09/15 01:33:13;;;;;;;8.60;7.30;;;19.80;75.30;;;;;;5106673;28;20019;-70
2021/09/15 01:35:40;;;;;;;8.57;6.47;;;19.80;75.50;;;;;;5124919;28;20087;-69
2021/09/15 01:38:05;;;;;;;8.95;6.63;;;19.80;75.50;;;;;;5107111;22;20331;-70
2021/09/15 01:40:31;;;;;;;9.33;6.90;;;19.90;75.50;;;;;;5087475;28;20070;-70
2021/09/15 01:42:57;;;;;;;10.17;7.33;;;19.80;75.70;;;;;;5102383;28;20027;-70
2021/09/15 01:45:23;;;;;;;10.77;7.20;;;19.80;76.30;;;;;;5085929;28;20031;-70
2021/09/15 01:47:49;;;;;;;8.87;7.17;;;19.80;75.50;;;;;;5084602;28;20024;-70
2021/09/15 01:50:14;;;;;;;9.70;7.00;;;19.80;76.40;;;;;;5083819;28;20323;-70
2021/09/15 01:52:41;;;;;;;8.70;7.00;;;19.70;76.00;;;;;;5083727;28;20020;-70
2021/09/15 01:55:08;;;;;;;7.90;6.63;;;19.80;76.10;;;;;;5083011;28;20035;-70
2021/09/15 01:57:34;;;;;;;;;;;19.70;76.30;;;;;;5066421;28;20024;-70
2021/09/15 02:00:00;;;;;;;9.50;7.63;;;19.80;76.80;;;;;;5083941;28;20237;-70
2021/09/15 02:02:25;;;;;;;9.73;6.67;;;19.70;76.50;;;;;;5083543;28;20028;-70
2021/09/15 02:04:51;;;;;;;7.40;6.50;;;19.70;76.50;;;;;;5083706;28;20039;-70
2021/09/15 02:07:17;;;;;;;11.00;6.87;;;19.70;76.40;;;;;;5079460;28;20024;-70
2021/09/15 02:09:43;;;;;;;8.43;7.07;;;19.70;75.60;;;;;;5063679;28;20044;-70
2021/09/15 02:12:09;;;;;;;9.97;6.43;;;19.70;75.50;;;;;;5063441;28;20350;-70
2021/09/15 02:14:35;;;;;;;8.70;6.73;;;19.70;75.50;;;;;;5063608;28;20032;-70
2021/09/15 02:17:00;;;;;;;6.97;6.27;;;19.70;75.40;;;;;;5063533;28;20029;-70
2021/09/15 02:19:26;;;;;;;8.67;6.73;;;19.80;75.10;;;;;;5063512;28;20038;-70
2021/09/15 02:21:52;;;;;;;8.27;7.00;;;19.70;75.20;;;;;;5063168;28;20032;-70
2021/09/15 02:24:18;;;;;;;11.27;7.10;;;19.70;75.30;;;;;;5063012;28;20044;-70
2021/09/15 02:26:43;;;;;;;12.70;7.43;;;19.60;75.30;;;;;;5063205;28;20106;-70
2021/09/15 02:29:09;;;;;;;8.53;6.60;;;19.60;75.70;;;;;;5063369;28;20032;-70
2021/09/15 02:31:35;;;;;;;9.10;6.93;;;19.60;75.80;;;;;;5063249;28;20028;-70
2021/09/15 02:34:01;;;;;;;9.47;6.67;;;19.60;75.30;;;;;;5062956;28;20055;-70
2021/09/15 02:36:27;;;;;;;13.13;6.53;;;19.60;75.60;;;;;;5062343;28;20037;-70
2021/09/15 02:38:52;;;;;;;14.13;7.03;;;19.60;76.00;;;;;;5062654;28;20055;-70
2021/09/15 02:41:18;;;;;;;8.93;6.80;;;19.60;76.20;;;;;;5063050;28;20029;-70
2021/09/15 02:43:44;;;;;;;9.67;7.20;;;19.60;75.70;;;;;;5062616;28;20025;-70
2021/09/15 02:46:10;;;;;;;11.98;7.22;;;19.70;75.20;;;;;;5062917;28;20017;-70
2021/09/15 02:48:36;;;;;;;8.63;7.27;;;19.70;75.60;;;;;;5062853;28;20100;-70
2021/09/15 02:51:01;;;;;;;9.37;7.20;;;19.60;75.50;;;;;;5062870;28;20071;-70
2021/09/15 02:53:27;;;;;;;10.40;7.43;;;19.60;75.70;;;;;;5062213;28;20032;-70
2021/09/15 02:55:53;;;;;;;11.10;6.55;;;19.60;75.50;;;;;;5062927;28;20025;-70
2021/09/15 02:58:19;;;;;;;10.50;7.93;;;19.60;75.30;;;;;;5062743;28;20354;-70
2021/09/15 03:00:45;;;;;;;8.80;6.93;;;19.60;75.50;;;;;;5062657;28;20278;-70
2021/09/15 03:03:11;;;;;;;9.27;6.70;;;19.60;75.60;;;;;;5061576;28;20029;-70
2021/09/15 03:05:37;;;;;;;8.03;6.93;;;19.70;76.10;;;;;;5062436;28;20036;-69
2021/09/15 03:08:02;;;;;;;9.63;6.90;;;19.70;75.90;;;;;;5062179;28;20039;-70
2021/09/15 03:10:29;;;;;;;8.57;6.95;;;19.60;76.10;;;;;;5078033;28;20047;-70
2021/09/15 03:12:54;;;;;;;8.13;7.00;;;19.60;75.90;;;;;;5076576;28;20024;-70
2021/09/15 03:15:20;;;;;;;13.17;6.43;;;19.60;75.80;;;;;;5062485;28;20109;-70
2021/09/15 03:17:46;;;;;;;8.38;7.03;;;19.50;75.70;;;;;;5077931;28;20056;-70
2021/09/15 03:20:12;;;;;;;10.73;6.87;;;19.50;75.30;;;;;;5077994;28;20028;-70
2021/09/15 03:22:38;;;;;;;7.47;6.72;;;19.60;74.80;;;;;;5077642;28;20025;-70
2021/09/15 03:25:05;;;;;;;7.10;6.20;;;19.60;74.50;;;;;;5062264;28;20044;-70
2021/09/15 03:27:30;;;;;;;8.90;6.55;;;19.60;75.50;;;;;;5060864;28;20028;-70
2021/09/15 03:29:56;;;;;;;10.27;7.27;;;19.60;74.60;;;;;;5077825;28;20055;-70
2021/09/15 03:32:22;;;;;;;8.87;7.00;;;19.60;74.20;;;;;;5060865;28;20088;-70
2021/09/15 03:34:48;;;;;;;10.97;6.90;;;19.60;74.60;;;;;;5060969;28;20280;-70
2021/09/15 03:37:14;;;;;;;9.27;6.77;;;19.60;74.30;;;;;;5077434;28;20029;-70
2021/09/15 03:39:39;;;;;;;9.20;7.40;;;19.60;74.50;;;;;;5062118;28;20119;-70
2021/09/15 03:42:05;;;;;;;9.73;6.57;;;19.60;75.10;;;;;;5061769;28;20074;-70
2021/09/15 03:44:32;;;;;;;8.27;6.77;;;19.50;75.30;;;;;;5061774;28;20092;-70
2021/09/15 03:46:58;;;;;;;;;;;19.50;75.10;;;;;;5062405;28;20258;-70
2021/09/15 03:49:24;;;;;;;7.88;6.97;;;19.40;74.90;;;;;;5044399;28;19936;-70
2021/09/15 03:51:50;;;;;;;8.03;6.53;;;19.40;75.50;;;;;;5061586;28;20048;-70
2021/09/15 03:54:16;;;;;;;10.83;6.87;;;19.50;75.60;;;;;;5061811;28;20102;-70
2021/09/15 03:56:42;;;;;;;9.60;6.45;;;19.50;74.90;;;;;;5077370;28;20024;-70
2021/09/15 03:59:08;;;;;;;9.43;6.57;;;19.50;75.30;;;;;;5061751;28;20100;-70
2021/09/15 04:01:34;;;;;;;8.43;6.47;;;19.40;75.80;;;;;;5061883;28;20017;-70
2021/09/15 04:04:00;;;;;;;13.17;7.20;;;19.40;75.70;;;;;;5076952;28;20232;-70
2021/09/15 04:06:26;;;;;;;11.07;7.27;;;19.40;76.30;;;;;;5061362;28;20339;-70
2021/09/15 04:08:52;;;;;;;10.73;7.40;;;19.40;76.40;;;;;;5061726;28;20036;-70
2021/09/15 04:11:18;;;;;;;9.93;6.80;;;19.40;76.20;;;;;;5077457;28;20266;-70
2021/09/15 04:13:44;;;;;;;9.50;7.72;;;19.30;76.80;;;;;;5077555;28;20071;-70
2021/09/15 04:16:09;;;;;;;8.02;7.05;;;19.40;76.70;;;;;;5065776;28;20361;-70
2021/09/15 04:18:35;;;;;;;9.93;7.33;;;19.30;76.40;;;;;;5065780;28;20029;-70
2021/09/15 04:21:01;;;;;;;13.47;7.57;;;19.30;76.60;;;;;;5065707;28;20128;-70
2021/09/15 04:23:43;;;;;;;9.80;7.30;;;19.30;76.30;;;;;;5080979;28;20035;-70
2021/09/15 04:31:37;;;;;;;10.38;7.18;;;19.30;77.00;;;;;;5065527;28;20027;-70
2021/09/15 04:34:03;;;;;;;9.23;6.77;;;19.30;76.50;;;;;;5065109;28;20024;-70
2021/09/15 04:36:29;;;;;;;9.27;7.00;;;19.30;76.00;;;;;;5065351;28;20021;-70
2021/09/15 04:38:55;;;;;;;10.03;7.10;;;19.30;76.40;;;;;;5065128;28;20276;-70
2021/09/15 04:41:21;;;;;;;8.30;6.63;;;19.30;76.50;;;;;;5065342;28;20309;-70
2021/09/15 04:43:47;;;;;;;9.10;6.30;;;19.30;76.90;;;;;;5063447;28;20024;-70
2021/09/15 04:46:13;;;;;;;8.73;7.17;;;19.30;76.70;;;;;;5065239;28;20262;-69
2021/09/15 04:48:39;;;;;;;10.10;7.27;;;19.40;77.00;;;;;;5063979;28;20071;-70
2021/09/15 04:51:05;;;;;;;10.05;7.10;;;19.40;76.90;;;;;;5065127;28;20025;-70
2021/09/15 04:53:31;;;;;;;;;;;19.30;77.10;;;;;;5080676;28;20094;-70
2021/09/15 04:55:57;;;;;;;8.55;6.97;;;19.30;77.10;;;;;;5064983;28;19905;-69
2021/09/15 04:58:23;;;;;;;10.98;7.10;;;19.40;77.40;;;;;;5080379;28;20055;-67
2021/09/15 05:00:49;;;;;;;10.83;7.70;;;19.40;77.40;;;;;;5065100;28;20075;-67
2021/09/15 05:03:15;;;;;;;10.13;7.50;;;19.40;76.50;;;;;;5064775;28;20088;-68
2021/09/15 05:05:41;;;;;;;9.13;7.90;;;19.30;76.60;;;;;;5064342;28;20276;-67
2021/09/15 05:08:06;;;;;;;11.00;7.20;;;19.30;76.90;;;;;;5064807;28;20029;-67
2021/09/15 05:10:32;;;;;;;14.73;7.40;;;19.30;77.10;;;;;;5064950;28;20091;-68
2021/09/15 05:12:58;;;;;;;11.60;7.50;;;19.30;77.70;;;;;;5063462;28;20091;-67
2021/09/15 05:15:25;;;;;;;9.80;7.75;;;19.30;77.50;;;;;;5064747;28;20089;-66
2021/09/15 05:17:51;;;;;;;9.40;7.40;;;19.30;77.70;;;;;;5063379;28;20032;-67
2021/09/15 05:20:18;;;;;;;8.82;6.85;;;19.30;77.10;;;;;;5066605;28;20036;-67
2021/09/15 05:22:49;;;;;;;8.38;7.07;;;19.30;76.40;;;;;;5067404;28;20033;-67
2021/09/15 05:25:15;;;;;;;8.27;7.10;;;19.30;77.00;;;;;;5065986;28;20324;-66
2021/09/15 05:27:41;;;;;;;9.38;8.02;;;19.40;77.30;;;;;;5065928;28;20029;-65
2021/09/15 05:30:08;;;;;;;8.57;7.33;;;19.30;77.20;;;;;;5066637;28;20228;-70
2021/09/15 05:32:34;;;;;;;;;;;19.30;77.50;;;;;;5063909;28;20020;-70
2021/09/15 05:34:59;;;;;;;11.15;8.25;;;19.30;77.30;;;;;;5063478;28;19905;-70
2021/09/15 05:37:25;;;;;;;21.50;13.20;;;19.40;76.70;;;;;;5064345;28;20084;-70
2021/09/15 05:39:51;;;;;;;19.43;9.87;;;19.40;76.80;;;;;;5064626;28;20332;-70
2021/09/15 05:42:17;;;;;;;13.03;8.07;;;19.40;76.80;;;;;;5064110;28;20027;-70
2021/09/15 05:44:43;;;;;;;8.80;7.23;;;19.40;77.00;;;;;;5060620;28;20036;-70
2021/09/15 05:47:08;;;;;;;8.83;7.47;;;19.40;77.10;;;;;;5057975;28;20302;-70
2021/09/15 05:49:34;;;;;;;11.37;8.13;;;19.40;77.50;;;;;;5048596;28;20052;-70
2021/09/15 05:52:00;;;;;;;11.70;8.70;;;19.50;77.50;;;;;;5048056;28;20268;-70
2021/09/15 05:54:26;;;;;;;10.82;8.23;;;19.50;77.40;;;;;;5067999;28;20041;-71
2021/09/15 05:56:52;;;;;;;9.93;8.47;;;19.50;77.10;;;;;;5050382;28;20063;-70
2021/09/15 05:59:18;;;;;;;12.60;8.47;;;19.50;76.40;;;;;;5063656;28;20274;-70
2021/09/15 06:01:43;;;;;;;9.67;7.40;;;19.50;77.10;;;;;;5063293;28;20316;-70
2021/09/15 06:04:09;;;;;;;10.47;8.27;;;19.50;76.90;;;;;;5062380;28;20088;-70
2021/09/15 06:06:35;;;;;;;10.50;7.77;;;19.60;77.50;;;;;;5062982;28;20017;-70
2021/09/15 06:09:01;;;;;;;10.50;8.37;;;19.60;77.40;;;;;;5063691;28;20063;-70
2021/09/15 06:11:27;;;;;;;9.87;8.70;;;19.60;77.20;;;;;;5060672;28;20151;-70
2021/09/15 06:13:54;;;;;;;13.23;8.63;;;19.60;77.60;;;;;;5043622;28;20025;-70
2021/09/15 06:16:21;;;;;;;10.15;8.63;;;19.70;76.80;;;;;;5078037;28;20032;-70
2021/09/15 06:18:47;;;;;;;12.43;7.70;;;19.70;76.50;;;;;;5061408;28;20028;-70
2021/09/15 06:21:13;;;;;;;15.97;8.67;;;19.70;77.10;;;;;;5078023;28;20025;-70
2021/09/15 06:23:39;;;;;;;11.83;8.63;;;19.80;76.20;;;;;;5062367;28;20020;-70
2021/09/15 06:26:05;;;;;;;12.03;8.43;;;19.70;76.60;;;;;;5062932;28;20597;-71
2021/09/15 06:28:31;;;;;;;14.07;9.30;;;19.70;76.60;;;;;;5062412;28;20078;-70
2021/09/15 06:31:00;;;;;;;14.37;9.27;;;19.70;76.30;;;;;;5062591;28;20025;-71
2021/09/15 06:33:26;;;;;;;13.65;9.07;;;19.70;76.90;;;;;;5077838;28;20309;-70
2021/09/15 06:35:52;;;;;;;10.70;9.43;;;19.70;77.60;;;;;;5078389;28;20335;-70
2021/09/15 06:38:18;;;;;;;12.10;9.07;;;19.80;78.10;;;;;;5062493;28;20028;-70
2021/09/15 06:40:45;;;;;;;13.15;9.35;;;19.80;77.30;;;;;;5077888;28;20063;-71
2021/09/15 06:43:11;;;;;;;13.23;9.20;;;19.90;77.20;;;;;;5057427;28;20029;-70
2021/09/15 06:45:37;;;;;;;13.90;9.60;;;19.90;76.90;;;;;;5042565;28;20044;-70
2021/09/15 06:48:03;;;;;;;16.57;13.57;;;19.90;77.50;;;;;;5009128;28;20039;-70
2021/09/15 06:50:28;;;;;;;19.27;13.32;;;19.80;77.40;;;;;;5042501;28;20451;-70
2021/09/15 06:52:54;;;;;;;14.80;10.97;;;19.80;78.20;;;;;;5025029;28;20025;-70
2021/09/15 06:55:20;;;;;;;12.83;9.43;;;19.90;78.20;;;;;;5042693;28;20029;-71
2021/09/15 06:57:46;;;;;;;12.67;9.77;;;19.90;78.90;;;;;;5042737;28;20088;-70
2021/09/15 07:00:12;;;;;;;14.70;10.30;;;20.00;79.00;;;;;;5042242;28;20037;-71
2021/09/15 07:02:38;;;;;;;16.60;10.70;;;20.00;78.20;;;;;;5042222;28;20497;-70
2021/09/15 07:05:05;;;;;;;15.73;10.10;;;20.00;78.20;;;;;;5041033;28;20059;-70
2021/09/15 07:07:30;;;;;;;18.73;10.15;;;20.10;78.80;;;;;;5041159;28;20271;-70
2021/09/15 07:09:56;;;;;;;17.93;9.47;;;20.20;79.50;;;;;;5041310;28;20167;-71
2021/09/15 07:12:22;;;;;;;12.73;9.87;;;20.20;79.60;;;;;;5042176;28;20044;-71
2021/09/15 07:14:48;;;;;;;13.47;10.27;;;20.20;77.90;;;;;;5024796;28;20260;-71
2021/09/15 07:17:14;;;;;;;22.73;10.27;;;20.30;78.90;;;;;;5024810;28;20024;-71
2021/09/15 07:19:40;;;;;;;15.13;10.67;;;20.30;79.60;;;;;;5008305;28;20029;-71
2021/09/15 07:22:05;;;;;;;12.73;8.83;;;20.30;79.20;;;;;;5040631;28;20025;-70
2021/09/15 07:24:31;;;;;;;14.93;10.98;;;20.40;79.10;;;;;;5040672;28;20033;-71
2021/09/15 07:26:57;;;;;;;14.10;10.40;;;20.40;78.50;;;;;;5041048;28;20328;-71
2021/09/15 07:29:23;;;;;;;16.58;10.23;;;20.30;77.60;;;;;;5040776;28;20017;-71
2021/09/15 07:31:49;;;;;;;12.27;10.03;;;20.40;77.40;;;;;;5049048;28;20091;-71
2021/09/15 07:34:15;;;;;;;11.50;9.57;;;20.40;77.90;;;;;;5043513;28;20063;-71
2021/09/15 07:36:40;;;;;;;14.00;10.80;;;20.20;76.90;;;;;;5059025;28;20021;-71
2021/09/15 07:39:07;;;;;;;17.17;11.52;;;20.20;77.70;;;;;;5044625;28;20041;-71
2021/09/15 07:41:33;;;;;;;14.65;10.57;;;20.20;77.20;;;;;;5060746;28;20055;-71
2021/09/15 07:44:00;;;;;;;16.85;10.65;;;20.10;77.60;;;;;;5049296;28;20025;-71
2021/09/15 07:46:26;;;;;;;;;;;20.20;77.70;;;;;;5041439;28;20258;-71
2021/09/15 07:48:52;;;;;;;14.52;11.13;;;20.20;77.70;;;;;;5056901;28;19913;-71
2021/09/15 07:51:18;;;;;;;15.63;11.68;;;20.10;77.20;;;;;;5041714;28;20025;-71
2021/09/15 07:53:44;;;;;;;16.77;11.23;;;20.10;78.10;;;;;;5024259;28;20194;-71
2021/09/15 07:56:10;;;;;;;15.47;12.47;;;20.20;78.40;;;;;;5040905;28;20032;-71
2021/09/15 07:58:36;;;;;;;17.93;11.60;;;20.20;78.60;;;;;;5041562;28;20048;-71
2021/09/15 08:01:02;;;;;;;17.60;11.50;;;20.30;78.90;;;;;;5024334;28;20354;-71
2021/09/15 08:03:27;;;;;;;17.83;12.20;;;20.30;79.00;;;;;;5024143;28;20067;-71
2021/09/15 08:05:54;;;;;;;16.47;12.27;;;20.30;78.60;;;;;;5008112;28;20030;-71
2021/09/15 08:08:21;;;;;;;18.13;12.48;;;20.40;78.90;;;;;;5040745;28;20302;-71
2021/09/15 08:10:47;;;;;;;19.25;13.10;;;20.50;78.70;;;;;;5040780;28;20331;-71
2021/09/15 08:13:12;;;;;;;18.07;13.43;;;20.50;79.20;;;;;;5039913;28;20029;-71
2021/09/15 08:15:38;;;;;;;16.43;12.63;;;20.50;78.60;;;;;;5061423;28;20295;-69
2021/09/15 08:18:04;;;;;;;21.00;12.97;;;20.50;79.40;;;;;;5062463;28;20036;-70
2021/09/15 08:20:30;;;;;;;24.57;13.00;;;20.70;79.80;;;;;;5078538;28;20084;-71
2021/09/15 08:22:56;;;;;;;28.38;16.63;;;20.80;79.90;;;;;;5077862;28;20247;-70
2021/09/15 08:25:22;;;;;;;28.40;17.37;;;20.80;80.20;;;;;;5062518;28;20044;-71
2021/09/15 08:27:49;;;;;;;26.17;16.08;;;20.70;80.20;;;;;;5062202;28;20047;-71
2021/09/15 08:30:15;;;;;;;28.67;17.17;;;20.90;80.40;;;;;;5061384;28;20075;-70
2021/09/15 08:32:41;;;;;;;24.02;15.70;;;20.80;79.80;;;;;;5076901;28;20303;-70
2021/09/15 08:35:08;;;;;;;21.07;15.43;;;20.80;78.80;;;;;;5076683;28;20041;-71
2021/09/15 08:37:37;;;;;;;19.92;14.18;;;20.90;79.40;;;;;;5027440;28;20033;-71
2021/09/15 08:40:05;;;;;;;27.08;19.77;;;20.80;79.80;;;;;;5044219;28;20346;-71
2021/09/15 08:42:32;;;;;;;21.65;14.80;;;20.90;79.60;;;;;;5043301;28;20025;-70
2021/09/15 08:44:58;;;;;;;19.60;14.18;;;20.90;79.40;;;;;;5059117;28;20021;-71
2021/09/15 08:47:27;;;;;;;19.80;14.00;;;20.80;80.40;;;;;;5060099;28;20024;-70
2021/09/15 08:49:53;;;;;;;17.98;13.85;;;20.90;80.60;;;;;;5043924;28;20299;-71
2021/09/15 08:52:18;;;;;;;17.30;13.63;;;20.90;80.80;;;;;;5061095;28;20227;-70
2021/09/15 08:54:44;;;;;;;17.13;13.43;;;20.90;79.60;;;;;;5076858;28;20234;-70
2021/09/15 08:57:10;;;;;;;18.40;13.30;;;21.00;80.30;;;;;;5061195;28;20033;-70
2021/09/15 08:59:36;;;;;;;20.45;13.88;;;21.00;80.30;;;;;;5076928;28;20393;-71
2021/09/15 09:02:10;;;;;;;16.80;13.33;;;21.20;79.50;;;;;;5064340;28;20032;-71
2021/09/15 09:04:55;;;;;;;16.33;12.52;;;21.40;79.60;;;;;;5063304;28;20044;-71
2021/09/15 09:07:23;;;;;;;16.15;13.30;;;21.50;79.10;;;;;;5065930;28;20323;-70
2021/09/15 09:09:53;;;;;;;16.58;12.75;;;21.60;80.00;;;;;;5067558;28;20031;-72
2021/09/15 09:12:25;;;;;;;18.15;13.55;;;21.70;78.80;;;;;;5059664;28;20392;-72
2021/09/15 09:14:51;;;;;;;16.23;13.05;;;21.80;77.70;;;;;;5075090;28;20095;-71
2021/09/15 09:17:30;;;;;;;19.00;12.95;;;21.80;78.20;;;;;;5049536;28;20035;-72
2021/09/15 09:20:20;;;;;;;13.93;11.88;;;21.90;77.90;;;;;;5048570;28;20048;-70
2021/09/15 09:23:14;;;;;;;15.07;11.95;;;21.90;78.90;;;;;;5062859;28;20021;-71
2021/09/15 09:25:46;;;;;;;14.80;11.63;;;21.70;78.70;;;;;;5079433;28;20028;-70
2021/09/15 09:28:30;;;;;;;17.65;13.55;;;21.70;79.60;;;;;;5064301;28;20028;-70
2021/09/15 09:31:04;;;;;;;15.85;11.95;;;21.70;79.80;;;;;;5063113;28;20591;-70
2021/09/15 09:33:30;;;;;;;17.20;13.13;;;21.70;79.40;;;;;;5062677;28;20029;-70
2021/09/15 09:36:04;;;;;;;20.33;12.57;;;21.60;79.60;;;;;;5063248;28;20032;-70
2021/09/15 09:38:36;;;;;;;16.02;12.60;;;21.40;80.00;;;;;;5062864;28;20052;-70
2021/09/15 09:41:11;;;;;;;14.70;11.65;;;21.30;80.10;;;;;;5060702;28;20025;-71
2021/09/15 09:43:51;;;;;;;17.15;12.90;;;21.40;81.10;;;;;;5058451;28;20032;-72
2021/09/15 09:46:20;;;;;;;18.05;12.80;;;21.50;81.30;;;;;;5062716;28;20390;-72
2021/09/15 09:48:56;;;;;;;19.42;12.48;;;21.50;82.20;;;;;;5063772;28;20270;-72
2021/09/15 09:51:37;;;;;;;15.02;11.93;;;21.50;82.70;;;;;;5062653;28;20024;-72
2021/09/15 09:54:20;;;;;;;17.42;12.48;;;21.50;82.00;;;;;;5062724;28;20021;-71
2021/09/15 09:56:48;;;;;;;14.82;10.52;;;21.50;81.60;;;;;;5063642;28;20032;-71
2021/09/15 09:59:14;;;;;;;15.05;11.50;;;21.50;82.20;;;;;;5046355;28;20025;-74
2021/09/15 10:01:45;;;;;;;16.85;12.02;;;21.60;82.00;;;;;;5062109;28;20093;-73
2021/09/15 10:04:12;;;;;;;17.25;12.25;;;21.70;82.20;;;;;;5062464;28;20070;-72
2021/09/15 10:06:38;;;;;;;17.90;13.02;;;21.70;82.30;;;;;;5063638;28;20093;-72
2021/09/15 10:09:07;;;;;;;16.17;12.82;;;21.70;83.00;;;;;;5062721;28;20216;-72
2021/09/15 10:11:39;;;;;;;21.80;12.00;;;21.60;83.60;;;;;;5058126;28;20025;-72
2021/09/15 10:14:07;;;;;;;18.48;11.18;;;21.70;84.30;;;;;;5057145;28;20231;-72
2021/09/15 10:16:39;;;;;;;11.32;9.82;;;21.70;83.80;;;;;;5058144;28;20036;-72
2021/09/15 10:19:06;;;;;;;15.38;11.23;;;21.70;83.20;;;;;;5058340;28;20027;-72
2021/09/15 10:21:34;;;;;;;14.63;10.20;;;21.60;82.80;;;;;;5062294;28;20078;-73
2021/09/15 10:23:59;;;;;;;17.10;11.13;;;21.60;82.60;;;;;;5062113;28;20189;-72
2021/09/15 10:26:38;;;;;;;12.63;9.35;;;21.70;83.10;;;;;;5078865;28;20036;-72
2021/09/15 10:29:28;;;;;;;12.65;8.95;;;21.40;82.20;;;;;;5061995;28;20021;-73
2021/09/15 10:32:11;;;;;;;11.73;8.70;;;21.30;81.60;;;;;;5062952;28;20033;-72
2021/09/15 10:34:40;;;;;;;11.68;8.90;;;21.40;82.40;;;;;;5063153;28;20020;-73
2021/09/15 10:37:12;;;;;;;14.05;8.82;;;21.50;82.40;;;;;;5063111;28;20070;-73
2021/09/15 10:40:04;;;;;;;12.93;8.77;;;21.60;82.50;;;;;;5061973;28;20087;-72
2021/09/15 10:45:23;;;;;;;12.32;7.32;;;21.70;83.60;;;;;;5068462;28;20029;-73
2021/09/15 10:47:54;;;;;;;13.20;7.55;;;21.70;81.20;;;;;;5062912;28;20017;-72
2021/09/15 10:50:29;;;;;;;14.88;8.02;;;21.80;80.80;;;;;;5062781;28;20239;-74
2021/09/15 10:53:07;;;;;;;9.75;7.18;;;21.60;81.20;;;;;;5062659;28;20017;-74
2021/09/15 10:55:53;;;;;;;14.18;7.82;;;21.60;80.60;;;;;;5062810;28;20212;-73
2021/09/15 10:58:24;;;;;;;13.27;7.85;;;21.60;80.90;;;;;;5061741;28;20025;-72
2021/09/15 11:01:13;;;;;;;12.25;8.20;;;21.60;80.90;;;;;;5061247;28;20029;-73
2021/09/15 11:03:51;;;;;;;10.68;7.40;;;21.60;82.10;;;;;;5062260;28;20027;-72
2021/09/15 11:06:23;;;;;;;10.30;7.10;;;21.70;82.90;;;;;;5062425;28;20075;-73
2021/09/15 11:08:53;;;;;;;10.13;6.97;;;21.80;81.50;;;;;;5062326;28;20095;-73
2021/09/15 11:11:22;;;;;;;10.38;7.55;;;21.80;80.80;;;;;;5061227;28;20036;-72
2021/09/15 11:13:51;;;;;;;9.20;6.90;;;21.80;80.20;;;;;;5058485;28;20035;-72
2021/09/15 11:16:33;;;;;;;8.63;6.25;;;21.80;79.90;;;;;;5054322;28;20025;-72
2021/09/15 11:19:14;;;;;;;8.68;5.88;;;21.90;81.00;;;;;;5042410;28;20101;-72
2021/09/15 11:21:55;;;;;;;9.02;5.80;;;21.90;80.50;;;;;;5042258;28;20292;-73
2021/09/15 11:24:23;;;;;;;9.40;6.53;;;21.90;80.20;;;;;;5056505;28;20037;-72
2021/09/15 11:26:54;;;;;;;9.45;6.18;;;21.90;80.30;;;;;;5042259;28;20017;-72
2021/09/15 11:29:53;;;;;;;8.63;6.50;;;21.80;80.80;;;;;;5056621;28;20032;-72
2021/09/15 11:32:23;;;;;;;9.95;6.55;;;21.80;81.00;;;;;;5045283;28;20057;-72
2021/09/15 11:34:52;;;;;;;11.57;7.13;;;21.70;80.80;;;;;;5041976;28;20029;-72
2021/09/15 11:37:30;;;;;;;9.23;6.32;;;21.70;81.90;;;;;;5057516;28;20101;-71
2021/09/15 11:40:05;;;;;;;8.75;6.53;;;21.60;82.00;;;;;;5057332;28;20024;-72
2021/09/15 11:42:35;;;;;;;8.93;6.63;;;21.60;82.30;;;;;;5041625;28;20025;-71
2021/09/15 11:45:16;;;;;;;10.60;6.35;;;21.50;81.60;;;;;;5055033;28;20032;-72
2021/09/15 11:47:47;;;;;;;12.75;6.63;;;21.60;81.20;;;;;;5057586;28;20021;-72
2021/09/15 11:50:24;;;;;;;10.63;6.95;;;21.60;81.90;;;;;;5041022;28;20024;-72
2021/09/15 11:52:54;;;;;;;11.48;7.35;;;21.60;82.20;;;;;;5040138;28;20358;-71
2021/09/15 11:55:20;;;;;;;11.32;7.97;;;21.60;81.70;;;;;;5040846;28;20025;-73
2021/09/15 11:57:50;;;;;;;11.33;7.97;;;21.70;82.60;;;;;;5042032;28;20040;-72
2021/09/15 12:00:16;;;;;;;12.23;9.15;;;21.70;82.50;;;;;;5040509;28;20045;-73
2021/09/15 12:02:45;;;;;;;14.82;8.80;;;21.70;82.90;;;;;;5041794;28;20044;-72
2021/09/15 12:05:11;;;;;;;13.32;9.40;;;21.70;83.50;;;;;;5040565;28;20051;-73
2021/09/15 12:07:38;;;;;;;12.82;8.05;;;21.70;83.20;;;;;;5040292;28;20358;-73
2021/09/15 12:10:08;;;;;;;12.00;7.32;;;21.80;81.90;;;;;;5041248;28;20031;-73
2021/09/15 12:12:34;;;;;;;10.60;6.43;;;21.70;81.00;;;;;;5059112;28;20411;-71
2021/09/15 12:15:01;;;;;;;;;;;21.70;81.40;;;;;;5042664;28;20088;-71
2021/09/15 12:17:27;;;;;;;12.82;7.07;;;21.70;81.60;;;;;;5054277;28;19917;-71
2021/09/15 12:19:56;;;;;;;10.38;6.13;;;21.70;81.40;;;;;;5060187;28;20027;-71
2021/09/15 12:22:28;;;;;;;9.38;5.97;;;21.60;80.90;;;;;;5059642;28;20040;-71
2021/09/15 12:25:11;;;;;;;10.38;5.53;;;21.60;81.70;;;;;;5061528;28;20146;-71
2021/09/15 12:27:39;;;;;;;9.93;5.53;;;21.60;80.80;;;;;;5060036;28;20017;-72
2021/09/15 12:30:13;;;;;;;8.10;5.30;;;21.60;80.70;;;;;;5059971;28;20088;-71
2021/09/15 12:32:40;;;;;;;9.98;5.53;;;21.50;79.40;;;;;;5061288;28;20036;-70
2021/09/15 12:35:33;;;;;;;10.25;4.20;;;21.50;80.70;;;;;;5063594;28;20028;-69
2021/09/15 12:38:04;;;;;;;9.55;4.70;;;21.60;80.80;;;;;;5064988;28;20032;-70
2021/09/15 12:40:30;;;;;;;9.10;4.63;;;21.50;81.00;;;;;;5064088;28;20032;-70
2021/09/15 12:43:08;;;;;;;11.90;5.47;;;21.50;80.10;;;;;;5064308;28;20028;-69
2021/09/15 12:45:34;;;;;;;7.25;4.38;;;21.50;81.60;;;;;;5064566;28;20020;-69
2021/09/15 12:48:00;;;;;;;7.45;4.43;;;21.50;81.20;;;;;;5045409;28;20025;-69
2021/09/15 12:50:31;;;;;;;10.63;4.53;;;21.60;81.00;;;;;;5063755;28;20035;-70
2021/09/15 12:53:11;;;;;;;8.68;5.03;;;21.70;81.20;;;;;;5064795;28;20031;-70